Time;durP1;ratioP1;P1;durP2;ratioP2;P2;SDS_P1;SDS_P2;PMS_P1;PMS_P2;Temp;Humidity;BMP_temperature;BMP_pressure;BME280_temperature;BME280_humidity;BME280_pressure;Samples;Min_cycle;Max_cycle;Signal;HPM_P1;HPM_P2
2022/07/29 00:01:18;;;;;;;2.97;1.30;;;15.70;78.40;;;;;;5077409;28;20513;-44
2022/07/29 00:03:46;;;;;;;6.78;1.35;;;15.70;77.80;;;;;;5112280;28;20039;-44
2022/07/29 00:06:12;;;;;;;7.35;1.92;;;15.70;77.40;;;;;;5112923;28;20047;-45
2022/07/29 00:08:37;;;;;;;8.90;1.52;;;15.70;77.40;;;;;;5112878;28;20425;-45
2022/07/29 00:11:03;;;;;;;4.38;1.20;;;15.70;77.30;;;;;;5112796;28;20032;-45
2022/07/29 00:13:29;;;;;;;3.25;1.23;;;15.70;77.50;;;;;;5094731;28;20046;-45
2022/07/29 00:15:57;;;;;;;4.03;1.35;;;15.70;77.60;;;;;;5113095;28;20288;-45
2022/07/29 00:18:23;;;;;;;4.22;1.55;;;15.70;77.60;;;;;;5112787;28;20413;-45
2022/07/29 00:20:48;;;;;;;3.00;1.25;;;15.70;77.00;;;;;;5094657;28;20024;-45
2022/07/29 00:23:16;;;;;;;3.63;1.17;;;15.70;77.10;;;;;;5112467;28;20034;-45
2022/07/29 00:25:42;;;;;;;5.45;1.40;;;15.60;76.80;;;;;;5112511;28;20030;-45
2022/07/29 00:28:08;;;;;;;5.70;1.60;;;15.60;76.80;;;;;;5094745;28;20056;-47
2022/07/29 00:30:33;;;;;;;5.45;1.48;;;15.60;77.30;;;;;;5094699;28;20031;-44
2022/07/29 00:33:01;;;;;;;2.33;1.17;;;15.60;77.40;;;;;;5112428;28;20055;-45
2022/07/29 00:35:45;;;;;;;3.90;1.27;;;15.60;76.90;;;;;;5077924;28;20032;-45
2022/07/29 00:38:12;;;;;;;4.75;1.58;;;15.60;77.10;;;;;;5097130;28;20103;-45
2022/07/29 00:40:38;;;;;;;4.30;1.38;;;15.60;77.70;;;;;;5094001;28;20069;-45
2022/07/29 00:43:04;;;;;;;3.47;1.58;;;15.60;78.10;;;;;;5094060;28;20552;-45
2022/07/29 00:45:30;;;;;;;5.57;1.70;;;15.60;78.10;;;;;;5093985;28;20050;-47
2022/07/29 00:47:56;;;;;;;3.55;1.30;;;15.60;77.90;;;;;;5111909;28;20095;-45
2022/07/29 00:50:24;;;;;;;3.95;1.42;;;15.50;77.90;;;;;;5111848;28;20031;-45
2022/07/29 00:52:51;;;;;;;4.78;1.40;;;15.60;78.10;;;;;;5111670;28;20024;-46
2022/07/29 00:55:17;;;;;;;4.85;1.55;;;15.50;78.10;;;;;;5093624;28;20038;-49
2022/07/29 00:57:44;;;;;;;3.55;1.50;;;15.50;78.40;;;;;;5111498;28;20023;-50
2022/07/29 01:00:21;;;;;;;4.00;1.75;;;15.40;78.40;;;;;;5111567;28;20520;-46
2022/07/29 01:02:49;;;;;;;6.57;1.83;;;15.40;78.60;;;;;;5111397;28;20028;-49
2022/07/29 01:05:18;;;;;;;4.65;1.30;;;15.40;78.50;;;;;;5111578;28;20019;-45
2022/07/29 01:07:45;;;;;;;5.55;2.50;;;15.40;78.30;;;;;;5093471;28;20066;-45
2022/07/29 01:10:14;;;;;;;3.92;1.50;;;15.40;78.30;;;;;;5110830;28;20035;-45
2022/07/29 01:12:43;;;;;;;2.55;1.35;;;15.40;78.40;;;;;;5111258;28;20077;-46
2022/07/29 01:15:09;;;;;;;4.47;1.52;;;15.40;78.70;;;;;;5111716;28;20119;-45
2022/07/29 01:18:18;;;;;;;5.88;2.13;;;15.40;78.60;;;;;;5111769;28;20419;-46
2022/07/29 01:21:36;;;;;;;4.95;1.60;;;15.40;78.80;;;;;;5093650;28;20058;-46
2022/07/29 01:24:15;;;;;;;6.38;1.75;;;15.40;78.90;;;;;;5098276;28;20043;-47
2022/07/29 01:26:46;;;;;;;5.07;1.48;;;15.40;79.10;;;;;;5111463;28;20043;-46
2022/07/29 01:29:31;;;;;;;5.38;1.63;;;15.40;79.00;;;;;;5111387;28;20059;-46
2022/07/29 01:32:05;;;;;;;2.40;1.20;;;15.40;78.90;;;;;;5111675;28;20026;-45
2022/07/29 01:34:54;;;;;;;7.25;1.55;;;15.40;78.80;;;;;;5111402;28;20480;-45
2022/07/29 01:37:23;;;;;;;4.38;1.20;;;15.40;78.50;;;;;;5111123;28;20034;-45
2022/07/29 01:39:51;;;;;;;8.82;1.73;;;15.40;78.40;;;;;;5111084;28;20067;-45
2022/07/29 01:42:31;;;;;;;4.65;1.42;;;15.40;78.30;;;;;;5110762;28;20044;-45
2022/07/29 01:45:12;;;;;;;4.57;1.65;;;15.40;78.20;;;;;;5111332;28;20052;-46
2022/07/29 01:47:45;;;;;;;3.92;1.13;;;15.40;78.30;;;;;;5111098;28;20024;-46
2022/07/29 01:50:18;;;;;;;3.63;1.38;;;15.40;77.90;;;;;;5092992;28;20059;-45
2022/07/29 01:52:56;;;;;;;3.80;1.60;;;15.40;77.90;;;;;;5110936;28;20449;-45
2022/07/29 01:55:29;;;;;;;3.28;1.58;;;15.40;77.80;;;;;;5110886;28;20563;-46
2022/07/29 01:57:58;;;;;;;3.97;1.50;;;15.40;77.80;;;;;;5111105;28;20664;-45
2022/07/29 02:00:26;;;;;;;5.72;1.40;;;15.40;77.80;;;;;;5076091;28;20317;-46
2022/07/29 02:02:56;;;;;;;2.78;1.40;;;15.40;77.90;;;;;;5076148;28;20107;-45
2022/07/29 02:05:29;;;;;;;3.67;1.45;;;15.40;78.10;;;;;;5110865;28;20024;-47
2022/07/29 02:07:57;;;;;;;5.38;1.70;;;15.30;78.00;;;;;;5094059;28;20023;-46
2022/07/29 02:10:31;;;;;;;4.47;1.60;;;15.40;78.20;;;;;;5110753;28;20055;-45
2022/07/29 02:12:59;;;;;;;3.95;1.50;;;15.40;78.50;;;;;;5110701;28;20035;-48
2022/07/29 02:15:28;;;;;;;5.13;1.30;;;15.40;78.50;;;;;;5092752;28;20026;-45
2022/07/29 02:18:04;;;;;;;9.73;1.90;;;15.40;78.50;;;;;;5110483;28;20484;-46
2022/07/29 02:20:34;;;;;;;5.18;1.65;;;15.40;78.40;;;;;;5109747;28;20050;-46
2022/07/29 02:23:02;;;;;;;5.70;1.60;;;15.40;78.40;;;;;;5110173;28;20023;-46
2022/07/29 02:25:28;;;;;;;5.00;1.73;;;15.40;77.90;;;;;;5110349;28;20027;-45
2022/07/29 02:27:56;;;;;;;6.00;1.40;;;15.40;77.80;;;;;;5110188;28;20024;-47
2022/07/29 02:30:23;;;;;;;2.92;1.08;;;15.30;77.60;;;;;;5110708;28;20039;-44
2022/07/29 02:32:50;;;;;;;6.10;1.30;;;15.40;77.60;;;;;;5110039;28;20030;-45
2022/07/29 02:35:17;;;;;;;5.20;1.77;;;15.40;77.60;;;;;;5092150;28;20046;-45
2022/07/29 02:38:49;;;;;;;3.70;1.60;;;15.40;77.30;;;;;;5092247;28;20031;-44
2022/07/29 02:40:34;;;;;;;4.43;1.77;;;15.40;77.20;;;;;;5109800;28;20036;-45
2022/07/29 02:43:05;;;;;;;5.13;2.08;;;15.40;76.70;;;;;;5109996;28;20368;-45
2022/07/29 02:45:34;;;;;;;4.53;1.40;;;15.40;77.10;;;;;;5092277;28;20505;-45
2022/07/29 02:48:09;;;;;;;5.28;1.45;;;15.40;76.80;;;;;;5109790;28;20020;-45
2022/07/29 02:50:43;;;;;;;5.68;1.38;;;15.40;76.70;;;;;;5092058;28;20330;-45
2022/07/29 02:53:21;;;;;;;7.43;1.77;;;15.40;77.00;;;;;;5092058;28;20035;-45
2022/07/29 02:56:02;;;;;;;3.70;1.70;;;15.40;76.80;;;;;;5109897;28;20031;-50
2022/07/29 02:58:52;;;;;;;7.93;1.65;;;15.40;77.00;;;;;;5109480;28;20075;-46
2022/07/29 03:01:25;;;;;;;5.75;1.52;;;15.40;76.60;;;;;;5074515;28;20032;-46
2022/07/29 03:03:53;;;;;;;7.40;1.50;;;15.40;76.70;;;;;;5108992;28;20039;-45
2022/07/29 03:06:22;;;;;;;4.20;1.65;;;15.40;76.60;;;;;;5091100;28;20020;-49
2022/07/29 03:08:49;;;;;;;7.55;1.65;;;15.40;76.80;;;;;;5109050;28;20031;-46
2022/07/29 03:11:16;;;;;;;3.95;1.48;;;15.30;76.80;;;;;;5109152;28;20023;-45
2022/07/29 03:13:42;;;;;;;4.63;1.73;;;15.40;76.70;;;;;;5091862;28;20479;-46
2022/07/29 03:16:10;;;;;;;4.57;1.90;;;15.40;77.10;;;;;;5075115;28;20472;-46
2022/07/29 03:18:37;;;;;;;4.97;1.73;;;15.40;77.00;;;;;;5091686;28;20460;-45
2022/07/29 03:21:03;;;;;;;3.47;1.48;;;15.30;76.90;;;;;;5109059;28;20349;-46
2022/07/29 03:23:32;;;;;;;9.07;2.25;;;15.30;76.70;;;;;;5109757;28;20039;-46
2022/07/29 03:25:57;;;;;;;4.63;1.50;;;15.30;77.00;;;;;;5109501;28;20027;-45
2022/07/29 03:28:24;;;;;;;3.88;1.45;;;15.20;77.50;;;;;;5091910;28;20033;-45
2022/07/29 03:30:50;;;;;;;4.63;1.60;;;15.20;77.70;;;;;;5091477;28;20080;-48
2022/07/29 03:33:15;;;;;;;4.55;1.80;;;15.20;77.70;;;;;;5113310;28;20034;-46
2022/07/29 03:35:41;;;;;;;6.65;1.73;;;15.30;78.00;;;;;;5113867;28;20076;-46
2022/07/29 03:38:09;;;;;;;4.57;1.65;;;15.30;77.90;;;;;;5095691;28;20468;-48
2022/07/29 03:40:46;;;;;;;6.82;1.98;;;15.30;77.70;;;;;;5113588;28;20364;-49
2022/07/29 03:43:15;;;;;;;6.65;2.17;;;15.30;77.90;;;;;;5095266;28;20184;-45
2022/07/29 03:45:51;;;;;;;7.72;2.38;;;15.30;78.10;;;;;;5095417;28;20023;-45
2022/07/29 03:48:20;;;;;;;4.28;1.75;;;15.30;78.10;;;;;;5113279;28;20157;-45
2022/07/29 03:50:46;;;;;;;7.95;2.40;;;15.30;78.00;;;;;;5113145;28;20034;-48
2022/07/29 03:53:12;;;;;;;3.88;1.60;;;15.40;78.10;;;;;;5113286;28;20040;-45
2022/07/29 03:55:44;;;;;;;7.30;1.73;;;15.40;78.00;;;;;;5113355;28;20059;-47
2022/07/29 03:58:13;;;;;;;3.40;1.50;;;15.30;78.00;;;;;;5095074;28;20045;-46
2022/07/29 04:00:40;;;;;;;7.32;1.40;;;15.40;78.00;;;;;;5113179;28;20447;-47
2022/07/29 04:03:05;;;;;;;6.65;2.63;;;15.40;77.60;;;;;;5094899;28;20032;-46
2022/07/29 04:05:31;;;;;;;5.90;1.63;;;15.40;77.70;;;;;;5113059;28;20359;-45
2022/07/29 04:07:56;;;;;;;4.75;1.60;;;15.40;77.60;;;;;;5113216;28;20027;-46
2022/07/29 04:10:24;;;;;;;6.57;1.63;;;15.40;77.60;;;;;;5112855;28;20028;-48
2022/07/29 04:12:50;;;;;;;6.10;1.60;;;15.40;77.40;;;;;;5095102;28;20444;-46
2022/07/29 04:15:16;;;;;;;3.42;1.60;;;15.40;77.20;;;;;;5113344;28;20043;-48
2022/07/29 04:17:42;;;;;;;5.38;1.80;;;15.40;77.00;;;;;;5112603;28;20122;-46
2022/07/29 04:20:09;;;;;;;3.65;1.52;;;15.40;76.50;;;;;;5112693;28;20030;-46
2022/07/29 04:22:34;;;;;;;5.32;1.35;;;15.40;76.60;;;;;;5112443;28;20024;-45
2022/07/29 04:25:00;;;;;;;6.07;1.67;;;15.50;76.60;;;;;;5112614;28;20024;-46
2022/07/29 04:27:26;;;;;;;6.30;1.50;;;15.50;76.80;;;;;;5112509;28;20147;-46
2022/07/29 04:29:51;;;;;;;4.50;1.65;;;15.50;76.60;;;;;;5112516;28;20019;-45
2022/07/29 04:32:17;;;;;;;5.75;2.03;;;15.50;76.70;;;;;;5112656;28;20036;-44
2022/07/29 04:34:43;;;;;;;3.90;1.60;;;15.60;76.00;;;;;;5112702;28;20112;-46
2022/07/29 04:37:08;;;;;;;5.55;1.85;;;15.60;75.80;;;;;;5094397;28;20058;-46
2022/07/29 04:39:34;;;;;;;4.78;2.00;;;15.60;75.90;;;;;;5112581;28;20023;-46
2022/07/29 04:41:59;;;;;;;5.63;1.50;;;15.70;75.70;;;;;;5094212;28;20048;-49
2022/07/29 04:44:26;;;;;;;4.68;1.70;;;15.80;76.10;;;;;;5111119;28;20028;-48
2022/07/29 04:46:51;;;;;;;3.53;1.83;;;15.70;76.10;;;;;;5094531;28;20093;-45
2022/07/29 04:49:17;;;;;;;5.55;2.03;;;15.70;76.00;;;;;;5094584;28;20420;-49
2022/07/29 04:51:42;;;;;;;4.45;1.85;;;15.70;76.10;;;;;;5094315;28;20024;-49
2022/07/29 04:54:10;;;;;;;2.60;1.55;;;15.80;76.20;;;;;;5112413;28;20031;-45
2022/07/29 04:56:36;;;;;;;9.07;2.15;;;15.70;76.70;;;;;;5111974;28;20038;-49
2022/07/29 04:59:02;;;;;;;4.45;2.13;;;15.80;76.90;;;;;;5112394;28;20031;-48
2022/07/29 05:01:27;;;;;;;5.10;1.73;;;15.80;76.30;;;;;;5093957;28;20027;-44
2022/07/29 05:03:53;;;;;;;3.20;1.63;;;15.80;76.30;;;;;;5111129;28;20337;-45
2022/07/29 05:06:19;;;;;;;6.18;1.75;;;15.90;75.90;;;;;;5094027;28;20437;-45
2022/07/29 05:08:44;;;;;;;6.65;1.98;;;15.90;76.30;;;;;;5111810;28;20039;-46
2022/07/29 05:11:10;;;;;;;3.55;1.70;;;15.90;77.00;;;;;;5111854;28;20024;-45
2022/07/29 05:13:35;;;;;;;4.38;1.98;;;15.90;76.90;;;;;;5111636;28;20057;-45
2022/07/29 05:16:01;;;;;;;4.05;2.10;;;15.90;77.00;;;;;;5111800;28;20127;-46
2022/07/29 05:18:30;;;;;;;6.72;2.15;;;15.90;77.40;;;;;;5111593;28;20356;-48
2022/07/29 05:20:55;;;;;;;10.63;2.00;;;15.90;77.40;;;;;;5111631;28;20077;-45
2022/07/29 05:23:21;;;;;;;6.00;1.63;;;15.90;77.00;;;;;;5111360;28;20359;-46
2022/07/29 05:25:49;;;;;;;10.10;2.42;;;15.90;77.10;;;;;;5111739;28;20047;-47
2022/07/29 05:28:16;;;;;;;5.30;1.90;;;15.90;76.90;;;;;;5093347;28;20019;-45
2022/07/29 05:30:42;;;;;;;8.43;2.88;;;15.90;76.70;;;;;;5111283;28;20456;-45
2022/07/29 05:33:07;;;;;;;5.03;2.35;;;15.90;77.20;;;;;;5111264;28;20046;-46
2022/07/29 05:35:34;;;;;;;7.90;2.47;;;15.80;76.60;;;;;;5093251;28;20019;-46
2022/07/29 05:38:03;;;;;;;9.45;2.47;;;15.80;77.10;;;;;;5093241;28;20089;-46
2022/07/29 05:40:29;;;;;;;5.57;2.22;;;15.80;77.20;;;;;;5111480;28;20387;-45
2022/07/29 05:42:55;;;;;;;4.13;1.90;;;15.70;76.80;;;;;;5089480;28;20048;-46
2022/07/29 05:45:21;;;;;;;5.75;2.72;;;15.80;77.20;;;;;;5090975;28;20046;-46
2022/07/29 05:47:49;;;;;;;7.55;2.20;;;15.80;77.60;;;;;;5091077;28;20341;-45
2022/07/29 05:50:15;;;;;;;5.15;2.03;;;15.80;77.30;;;;;;5072570;28;20028;-45
2022/07/29 05:52:40;;;;;;;5.55;2.50;;;15.80;77.20;;;;;;5089819;28;20062;-48
2022/07/29 05:55:06;;;;;;;4.88;2.22;;;15.80;77.30;;;;;;5089598;28;20086;-46
2022/07/29 05:57:35;;;;;;;6.75;2.33;;;15.90;77.70;;;;;;5090125;28;20474;-45
2022/07/29 06:00:01;;;;;;;7.95;3.63;;;15.90;77.70;;;;;;5090039;28;20019;-46
2022/07/29 06:02:29;;;;;;;5.57;2.00;;;15.90;77.90;;;;;;5088973;28;20181;-45
2022/07/29 06:04:54;;;;;;;7.95;2.47;;;15.90;77.90;;;;;;5088543;28;20028;-46
2022/07/29 06:07:20;;;;;;;12.43;2.90;;;15.90;77.30;;;;;;5089537;28;20330;-47
2022/07/29 06:09:46;;;;;;;8.02;2.20;;;15.90;77.80;;;;;;5089642;28;20043;-45
2022/07/29 06:12:14;;;;;;;10.38;2.35;;;15.90;77.80;;;;;;5089470;28;20027;-47
2022/07/29 06:14:40;;;;;;;6.15;1.95;;;16.00;77.30;;;;;;5088590;28;20028;-46
2022/07/29 06:17:05;;;;;;;7.03;2.30;;;16.10;77.70;;;;;;5088711;28;20043;-44
2022/07/29 06:19:34;;;;;;;6.45;2.20;;;16.20;77.70;;;;;;5088563;28;20031;-46
2022/07/29 06:22:03;;;;;;;5.65;2.33;;;16.30;77.10;;;;;;5089081;28;20020;-45
2022/07/29 06:24:28;;;;;;;7.75;2.55;;;16.40;77.40;;;;;;5089939;28;20361;-45
2022/07/29 06:26:54;;;;;;;5.47;2.85;;;16.40;76.80;;;;;;5089236;28;20039;-46
2022/07/29 06:29:20;;;;;;;5.38;2.42;;;16.50;76.50;;;;;;5089181;28;20103;-48
2022/07/29 06:31:45;;;;;;;5.43;2.45;;;16.60;76.90;;;;;;5089204;28;20144;-45
2022/07/29 06:34:11;;;;;;;5.20;1.80;;;16.80;76.60;;;;;;5088908;28;20512;-45
2022/07/29 06:36:38;;;;;;;4.70;2.22;;;16.90;76.60;;;;;;5088754;28;20354;-45
2022/07/29 06:39:06;;;;;;;8.77;2.75;;;17.00;76.30;;;;;;5089156;28;20092;-45
2022/07/29 06:41:31;;;;;;;10.65;2.70;;;17.10;76.40;;;;;;5098224;28;20052;-49
2022/07/29 06:43:59;;;;;;;7.18;2.13;;;17.20;75.90;;;;;;5109931;28;20023;-45
2022/07/29 06:46:25;;;;;;;5.13;2.67;;;17.40;75.60;;;;;;5109973;28;20027;-48
2022/07/29 06:48:51;;;;;;;6.55;2.33;;;17.60;75.70;;;;;;5092034;28;20673;-46
2022/07/29 06:51:17;;;;;;;7.13;2.40;;;17.60;74.70;;;;;;5110071;28;20021;-45
2022/07/29 06:53:43;;;;;;;5.72;2.35;;;17.70;74.60;;;;;;5110003;28;20028;-45
2022/07/29 06:56:09;;;;;;;3.80;2.10;;;17.70;73.60;;;;;;5092133;28;20020;-47
2022/07/29 06:58:35;;;;;;;5.25;2.15;;;17.60;73.70;;;;;;5109737;28;20028;-47
2022/07/29 07:01:03;;;;;;;8.23;2.53;;;17.60;73.00;;;;;;5109977;28;20027;-45
2022/07/29 07:03:29;;;;;;;5.45;2.45;;;17.70;73.60;;;;;;5109840;28;20028;-46
2022/07/29 07:05:55;;;;;;;6.25;2.08;;;17.70;72.60;;;;;;5109433;28;20041;-47
2022/07/29 07:08:24;;;;;;;6.78;2.45;;;17.60;72.30;;;;;;5109532;28;20020;-45
2022/07/29 07:10:51;;;;;;;8.35;2.63;;;17.60;73.10;;;;;;5091984;28;20041;-46
2022/07/29 07:13:17;;;;;;;5.10;2.35;;;17.60;73.80;;;;;;5109753;28;20027;-48
2022/07/29 07:15:44;;;;;;;7.68;2.20;;;17.70;73.50;;;;;;5109827;28;20103;-48
2022/07/29 07:18:10;;;;;;;8.77;2.53;;;17.60;73.40;;;;;;5109674;28;20028;-46
2022/07/29 07:20:36;;;;;;;7.05;2.97;;;17.70;72.50;;;;;;5109729;28;20042;-48
2022/07/29 07:23:02;;;;;;;5.75;2.70;;;17.60;73.10;;;;;;5109610;28;20041;-44
2022/07/29 07:25:28;;;;;;;9.13;2.70;;;17.60;73.40;;;;;;5109608;28;20768;-46
2022/07/29 07:27:54;;;;;;;7.85;2.78;;;17.50;73.80;;;;;;5109669;28;20073;-46
2022/07/29 07:30:19;;;;;;;7.93;2.30;;;17.70;74.20;;;;;;5091576;28;20020;-46
2022/07/29 07:32:45;;;;;;;6.70;2.47;;;17.70;73.40;;;;;;5075056;28;20058;-48
2022/07/29 07:35:11;;;;;;;6.90;2.50;;;17.70;74.50;;;;;;5091317;28;20032;-46
2022/07/29 07:37:37;;;;;;;6.35;2.65;;;17.70;73.70;;;;;;5109673;28;20032;-46
2022/07/29 07:40:04;;;;;;;6.40;2.80;;;17.80;74.30;;;;;;5109519;28;20035;-47
2022/07/29 07:42:30;;;;;;;4.35;2.42;;;17.80;73.60;;;;;;5109515;28;20124;-48
2022/07/29 07:44:57;;;;;;;4.30;2.25;;;17.90;73.50;;;;;;5091356;28;20378;-48
2022/07/29 07:47:26;;;;;;;5.80;2.33;;;17.90;73.00;;;;;;5109843;28;20027;-46
2022/07/29 07:49:54;;;;;;;6.13;2.80;;;18.00;73.10;;;;;;5109690;28;20026;-46
2022/07/29 07:52:21;;;;;;;12.15;3.15;;;18.20;73.00;;;;;;5109238;28;20028;-48
2022/07/29 07:54:48;;;;;;;9.73;2.95;;;18.30;72.80;;;;;;5091351;28;20024;-47
2022/07/29 07:57:14;;;;;;;6.53;2.65;;;18.40;73.40;;;;;;5091372;28;20216;-51
2022/07/29 07:59:41;;;;;;;7.78;2.55;;;18.60;72.90;;;;;;5074636;28;20023;-48
2022/07/29 08:02:08;;;;;;;8.60;3.30;;;18.90;71.70;;;;;;5109491;28;20113;-46
2022/07/29 08:04:33;;;;;;;11.23;3.28;;;19.10;70.80;;;;;;5108939;28;20097;-48
2022/07/29 08:07:00;;;;;;;7.68;2.70;;;19.40;70.00;;;;;;5091338;28;20113;-49
2022/07/29 08:09:27;;;;;;;6.13;2.35;;;19.80;70.40;;;;;;5109466;28;20027;-48
2022/07/29 08:11:53;;;;;;;5.82;2.47;;;20.60;68.50;;;;;;5109247;28;20024;-47
2022/07/29 08:14:19;;;;;;;6.95;2.85;;;21.10;66.00;;;;;;5109394;28;20032;-46
2022/07/29 08:16:45;;;;;;;7.47;2.00;;;21.50;64.70;;;;;;5091245;28;20051;-46
2022/07/29 08:19:11;;;;;;;7.13;2.25;;;21.80;62.60;;;;;;5110718;28;20019;-47
2022/07/29 08:21:37;;;;;;;5.43;2.50;;;21.90;61.80;;;;;;5094937;28;20042;-47
2022/07/29 08:26:46;;;;;;;5.22;2.13;;;21.60;62.10;;;;;;5112720;28;20035;-48
2022/07/29 08:29:12;;;;;;;8.18;2.30;;;21.30;62.90;;;;;;5095101;28;20024;-49
2022/07/29 08:31:41;;;;;;;3.50;1.67;;;21.40;63.80;;;;;;5112440;28;20025;-47
2022/07/29 08:34:08;;;;;;;3.80;2.15;;;21.30;64.40;;;;;;5112235;28;20047;-48
2022/07/29 08:36:37;;;;;;;4.63;2.13;;;21.20;64.10;;;;;;5094544;28;20028;-47
2022/07/29 08:39:03;;;;;;;5.67;2.40;;;21.40;64.00;;;;;;5094541;28;20028;-46
2022/07/29 08:41:32;;;;;;;7.60;2.60;;;21.40;64.10;;;;;;5112330;28;20122;-47
2022/07/29 08:43:58;;;;;;;5.88;2.47;;;21.60;63.90;;;;;;5112328;28;20103;-46
2022/07/29 08:46:27;;;;;;;7.63;2.33;;;21.70;64.20;;;;;;5112273;28;20397;-47
2022/07/29 08:48:56;;;;;;;;;;;21.90;64.00;;;;;;5112819;28;20409;-47
2022/07/29 08:51:24;;;;;;;6.10;2.22;;;22.10;63.60;;;;;;5112633;28;20422;-46
2022/07/29 08:53:50;;;;;;;3.80;2.10;;;22.20;63.30;;;;;;5112226;28;20435;-52
2022/07/29 08:56:17;;;;;;;6.95;2.60;;;22.40;63.20;;;;;;5094131;28;20055;-48
2022/07/29 08:58:44;;;;;;;5.55;2.60;;;22.70;62.10;;;;;;5093894;28;20034;-49
2022/07/29 09:01:11;;;;;;;7.20;2.15;;;22.50;61.30;;;;;;5112211;28;20074;-47
2022/07/29 09:03:39;;;;;;;5.07;2.33;;;22.90;62.30;;;;;;5112092;28;20034;-48
2022/07/29 09:06:05;;;;;;;7.40;2.70;;;23.30;62.60;;;;;;5111963;28;20026;-48
2022/07/29 09:08:32;;;;;;;10.75;2.70;;;23.90;59.30;;;;;;5093406;28;20051;-46
2022/07/29 09:11:00;;;;;;;7.40;2.67;;;23.80;57.60;;;;;;5111817;28;20078;-46
2022/07/29 09:13:26;;;;;;;8.02;2.65;;;23.30;58.40;;;;;;5111956;28;20475;-48
2022/07/29 09:15:52;;;;;;;3.60;2.15;;;23.00;59.70;;;;;;5111829;28;20089;-47
2022/07/29 09:18:37;;;;;;;8.82;2.15;;;22.90;61.70;;;;;;5111676;28;20019;-47
2022/07/29 09:24:04;;;;;;;10.45;3.13;;;22.40;61.60;;;;;;5111642;28;20402;-51
2022/07/29 09:26:32;;;;;;;6.75;2.85;;;22.40;61.70;;;;;;5111485;28;20038;-47
2022/07/29 09:28:58;;;;;;;6.57;2.60;;;22.40;62.80;;;;;;5111194;28;20558;-46
2022/07/29 09:31:40;;;;;;;9.10;2.75;;;22.20;62.80;;;;;;5093348;28;20080;-50
2022/07/29 09:34:07;;;;;;;7.63;2.30;;;21.90;63.40;;;;;;5111384;28;20394;-49
2022/07/29 09:36:47;;;;;;;4.35;2.20;;;21.80;64.80;;;;;;5093538;28;20038;-50
2022/07/29 09:39:14;;;;;;;7.15;3.05;;;21.50;64.70;;;;;;5093412;28;20138;-49
2022/07/29 09:41:54;;;;;;;6.85;2.47;;;21.60;65.30;;;;;;5111044;28;20047;-50
2022/07/29 09:44:19;;;;;;;;;;;21.70;65.70;;;;;;5111580;28;20031;-49
2022/07/29 09:46:53;;;;;;;6.38;2.40;;;21.70;65.80;;;;;;5093278;28;19907;-47
2022/07/29 09:49:19;;;;;;;10.48;2.80;;;21.90;64.60;;;;;;5093554;28;20016;-46
2022/07/29 09:51:45;;;;;;;9.77;2.75;;;21.60;65.40;;;;;;5110626;28;20028;-47
2022/07/29 09:54:25;;;;;;;10.93;4.00;;;21.60;65.70;;;;;;5093333;28;20026;-47
2022/07/29 09:56:52;;;;;;;7.57;3.28;;;21.20;64.60;;;;;;5111204;28;20453;-46
2022/07/29 09:59:17;;;;;;;5.20;2.85;;;21.20;66.90;;;;;;5111165;28;20126;-46
2022/07/29 10:01:44;;;;;;;6.97;2.72;;;21.40;65.60;;;;;;5110821;28;20106;-50
2022/07/29 10:04:09;;;;;;;6.95;2.85;;;21.40;65.50;;;;;;5075749;28;20034;-46
2022/07/29 10:06:36;;;;;;;4.53;2.45;;;21.40;66.00;;;;;;5093107;28;20036;-49
2022/07/29 10:09:12;;;;;;;10.27;3.28;;;21.60;65.30;;;;;;5110624;28;20038;-46
2022/07/29 10:11:38;;;;;;;11.02;4.13;;;21.70;65.20;;;;;;5110743;28;20481;-49
2022/07/29 10:14:04;;;;;;;6.80;3.20;;;21.40;63.70;;;;;;5092581;28;20135;-47
2022/07/29 10:16:32;;;;;;;6.25;2.55;;;21.60;66.50;;;;;;5110524;28;20025;-47
2022/07/29 10:19:01;;;;;;;5.03;2.47;;;21.50;65.70;;;;;;5110581;28;20024;-46
2022/07/29 10:21:27;;;;;;;8.30;2.13;;;21.20;67.10;;;;;;5110632;28;20333;-46
2022/07/29 10:23:54;;;;;;;5.15;2.90;;;21.00;66.40;;;;;;5092481;28;20115;-45
2022/07/29 10:26:22;;;;;;;5.90;3.20;;;21.00;67.90;;;;;;5110119;28;20019;-47
2022/07/29 10:28:48;;;;;;;7.45;3.22;;;21.00;66.60;;;;;;5110016;28;20041;-46
2022/07/29 10:31:23;;;;;;;5.50;2.72;;;20.90;67.40;;;;;;5109757;28;20024;-46
2022/07/29 10:34:05;;;;;;;6.88;3.13;;;20.90;67.10;;;;;;5109843;28;20356;-46
2022/07/29 10:36:47;;;;;;;4.50;2.30;;;21.00;67.90;;;;;;5109379;28;20043;-46
2022/07/29 10:39:47;;;;;;;7.05;3.58;;;21.20;68.50;;;;;;5109460;28;20023;-49
2022/07/29 10:42:24;;;;;;;7.70;3.33;;;21.40;69.10;;;;;;5079870;28;20054;-48
2022/07/29 10:44:51;;;;;;;8.55;3.38;;;21.70;68.30;;;;;;5109278;28;20023;-50
2022/07/29 10:47:24;;;;;;;7.82;3.05;;;21.90;67.90;;;;;;5109697;28;20028;-47
2022/07/29 10:50:03;;;;;;;6.55;3.00;;;22.10;65.30;;;;;;5110069;28;20056;-49
2022/07/29 10:52:53;;;;;;;10.00;2.63;;;22.10;65.00;;;;;;5110173;28;20020;-45
2022/07/29 10:55:48;;;;;;;7.35;2.90;;;22.20;63.90;;;;;;5092168;28;20019;-51
2022/07/29 10:58:19;;;;;;;6.78;2.63;;;22.30;63.60;;;;;;5109826;28;20020;-52
2022/07/29 11:00:47;;;;;;;7.10;3.17;;;22.30;63.50;;;;;;5109949;28;20020;-48
2022/07/29 11:03:40;;;;;;;7.50;2.33;;;22.60;62.70;;;;;;5091628;28;20024;-47
2022/07/29 11:06:06;;;;;;;7.38;2.67;;;22.80;62.50;;;;;;5092085;28;20054;-47
2022/07/29 11:08:32;;;;;;;5.90;2.58;;;22.80;62.50;;;;;;5109652;28;20012;-46
2022/07/29 11:11:19;;;;;;;8.95;2.83;;;22.90;60.30;;;;;;5108827;28;20425;-47
2022/07/29 11:13:50;;;;;;;8.23;2.17;;;23.20;61.20;;;;;;5094994;28;20126;-50
2022/07/29 11:16:18;;;;;;;6.07;3.00;;;23.80;59.70;;;;;;5091583;28;20108;-47
2022/07/29 11:19:15;;;;;;;7.07;2.50;;;23.60;60.10;;;;;;5092018;28;20039;-50
2022/07/29 11:21:47;;;;;;;7.10;3.05;;;23.80;61.40;;;;;;5100926;28;20040;-47
2022/07/29 11:24:20;;;;;;;5.63;2.53;;;23.80;59.80;;;;;;5109709;28;20106;-47
2022/07/29 11:27:06;;;;;;;9.77;3.30;;;23.70;58.10;;;;;;5109778;28;20034;-50
2022/07/29 11:29:39;;;;;;;20.08;4.80;;;23.60;62.00;;;;;;5109456;28;20015;-47
2022/07/29 11:32:19;;;;;;;7.90;2.90;;;23.60;59.50;;;;;;5091690;28;20769;-48
2022/07/29 11:34:48;;;;;;;6.03;3.17;;;23.90;62.40;;;;;;5109456;28;20024;-47
2022/07/29 11:37:19;;;;;;;9.88;3.55;;;23.90;61.00;;;;;;5109931;28;20332;-49
2022/07/29 11:39:56;;;;;;;5.95;2.72;;;23.90;61.70;;;;;;5091520;28;20177;-47
2022/07/29 11:42:24;;;;;;;7.28;3.17;;;24.20;62.50;;;;;;5109292;28;20050;-46
2022/07/29 11:45:10;;;;;;;6.75;3.47;;;24.30;62.70;;;;;;5109401;28;20031;-47
2022/07/29 11:47:59;;;;;;;7.32;2.95;;;24.10;59.90;;;;;;5109345;28;20031;-48
2022/07/29 11:50:38;;;;;;;7.27;3.10;;;23.80;60.90;;;;;;5091573;28;20108;-47
2022/07/29 11:53:12;;;;;;;;;;;23.40;61.40;;;;;;5111277;28;20062;-46
2022/07/29 11:55:40;;;;;;;12.05;3.25;;;23.30;63.00;;;;;;5095281;28;19903;-48
2022/07/29 11:58:07;;;;;;;11.82;5.20;;;23.60;64.80;;;;;;5095182;28;20114;-51
2022/07/29 12:00:52;;;;;;;6.30;3.30;;;23.60;61.90;;;;;;5112744;28;20429;-47
2022/07/29 12:03:28;;;;;;;7.65;3.55;;;23.40;64.60;;;;;;5094852;28;20039;-47
2022/07/29 12:05:58;;;;;;;10.35;3.30;;;23.60;62.70;;;;;;5112646;28;20015;-46
2022/07/29 12:08:25;;;;;;;9.85;3.10;;;23.80;63.30;;;;;;5112797;28;20038;-48
2022/07/29 12:10:56;;;;;;;5.90;3.33;;;23.60;62.80;;;;;;5112630;28;20076;-46
2022/07/29 12:13:24;;;;;;;10.30;3.65;;;23.30;63.30;;;;;;5094456;28;20068;-47
2022/07/29 12:15:54;;;;;;;7.93;3.13;;;23.00;63.60;;;;;;5078087;28;20399;-46
2022/07/29 12:18:21;;;;;;;7.95;3.00;;;23.20;63.70;;;;;;5112514;28;20476;-46
2022/07/29 12:20:56;;;;;;;7.53;2.30;;;23.40;65.20;;;;;;5112689;28;20869;-47
2022/07/29 12:23:23;;;;;;;11.38;3.83;;;23.40;63.10;;;;;;5112733;28;20122;-50
2022/07/29 12:25:54;;;;;;;8.32;2.97;;;23.60;63.10;;;;;;5112780;28;20016;-51
2022/07/29 12:28:21;;;;;;;7.00;2.78;;;23.60;64.50;;;;;;5112660;28;20098;-48
2022/07/29 12:30:49;;;;;;;10.23;3.70;;;23.80;62.80;;;;;;5112716;28;20015;-47
2022/07/29 12:33:27;;;;;;;5.57;3.03;;;23.30;63.30;;;;;;5112595;28;20397;-49
2022/07/29 12:36:03;;;;;;;6.95;2.80;;;23.10;61.60;;;;;;5112572;28;20023;-50
2022/07/29 12:38:30;;;;;;;6.97;2.92;;;22.90;62.60;;;;;;5094491;28;20027;-48
2022/07/29 12:40:58;;;;;;;7.18;2.50;;;22.80;64.60;;;;;;5112381;28;20437;-47
2022/07/29 12:43:28;;;;;;;6.90;2.88;;;22.90;64.20;;;;;;5112039;28;20037;-47
2022/07/29 12:45:56;;;;;;;8.88;3.72;;;22.90;64.90;;;;;;5112547;28;20347;-47
2022/07/29 12:48:41;;;;;;;5.77;3.50;;;22.80;65.00;;;;;;5094452;28;20096;-47
2022/07/29 12:51:11;;;;;;;8.48;2.83;;;22.60;64.80;;;;;;5112322;28;20107;-48
2022/07/29 12:53:40;;;;;;;6.25;3.10;;;22.70;66.40;;;;;;5112296;28;20036;-51
2022/07/29 12:56:15;;;;;;;8.13;3.55;;;22.60;66.30;;;;;;5112261;28;20460;-46
2022/07/29 12:58:42;;;;;;;10.52;4.13;;;22.60;66.70;;;;;;5094120;28;20039;-46
2022/07/29 13:01:17;;;;;;;8.98;3.13;;;22.50;65.20;;;;;;5112005;28;20027;-47
2022/07/29 13:03:49;;;;;;;8.77;3.28;;;22.50;66.30;;;;;;5111750;28;20022;-49
2022/07/29 13:06:36;;;;;;;7.80;2.72;;;22.60;64.70;;;;;;5093449;28;20028;-47